TAF and METAR

Decoding for American and Canadian METARs and TAFs is not fully implemented.

Could not understand the following METAR

CWSA 251300Z AUTO /////KT 9SM CLR 12/01 RMK WND MISG PRES MISG DENSITY ALT MISG

TAF for Sable Island

TAF CWSA 251338Z 2514/2524 01012KT P6SM FEW040 FM251800 02008KT P6SM SCT040 RMK FCST BASED ON AUTO OBS. NXT FCST BY 252000Z
Report created 25. sep 15:38

between 25. sep 16:00 - 25. sep 02:00

wind 12 knots from N (010°)